Time;durP1;ratioP1;P1;durP2;ratioP2;P2;SDS_P1;SDS_P2;PMS_P1;PMS_P2;Temp;Humidity;BMP_temperature;BMP_pressure;BME280_temperature;BME280_humidity;BME280_pressure;Samples;Min_cycle;Max_cycle;Signal;HPM_P1;HPM_P2
2023/03/23 00:00:54;;;;;;;96.60;86.90;;;;;;;8.37;100.00;101240.34;5070010;28;20044;-83
2023/03/23 00:03:24;;;;;;;99.13;89.35;;;;;;;8.39;100.00;101235.72;5070146;28;20045;-83
2023/03/23 00:05:52;;;;;;;118.53;107.82;;;;;;;8.31;100.00;101240.22;5062944;28;20049;-83
2023/03/23 00:08:21;;;;;;;110.45;100.07;;;;;;;8.30;100.00;101228.00;5067059;28;20041;-83
2023/03/23 00:10:52;;;;;;;102.10;92.13;;;;;;;8.31;100.00;101233.13;5070379;28;20041;-83
2023/03/23 00:13:19;;;;;;;113.82;102.95;;;;;;;8.36;100.00;101232.59;5067712;28;20041;-83
2023/03/23 00:15:48;;;;;;;97.03;87.40;;;;;;;8.27;100.00;101219.41;5070732;28;20055;-83
2023/03/23 00:18:21;;;;;;;97.00;86.97;;;;;;;8.32;100.00;101224.19;5070810;28;20039;-83
2023/03/23 00:20:50;;;;;;;94.53;84.85;;;;;;;8.34;100.00;101224.81;5070577;28;20048;-83
2023/03/23 00:23:19;;;;;;;106.13;95.85;;;;;;;8.40;100.00;101229.44;5070152;28;20049;-83
2023/03/23 00:25:47;;;;;;;98.05;87.78;;;;;;;8.33;100.00;101230.31;5070404;28;20081;-83
2023/03/23 00:28:14;;;;;;;110.80;100.15;;;;;;;8.31;100.00;101224.34;5069239;28;20132;-83
2023/03/23 00:30:42;;;;;;;103.47;93.18;;;;;;;8.35;100.00;101222.97;5059847;28;20050;-83
2023/03/23 00:33:12;;;;;;;132.18;120.18;;;;;;;8.42;100.00;101223.97;5067167;28;20049;-83
2023/03/23 00:35:39;;;;;;;102.82;92.38;;;;;;;8.32;100.00;101216.25;5071519;28;20053;-83
2023/03/23 00:38:08;;;;;;;107.50;96.28;;;;;;;8.39;100.00;101222.50;5073571;28;20098;-83
2023/03/23 00:40:35;;;;;;;111.50;99.93;;;;;;;8.33;100.00;101225.00;5074571;28;20045;-83
2023/03/23 00:43:03;;;;;;;135.27;122.28;;;;;;;8.40;100.00;101220.66;5073951;28;20075;-83
2023/03/23 00:45:30;;;;;;;123.68;111.70;;;;;;;8.32;100.00;101215.41;5073626;28;20057;-84
2023/03/23 00:48:01;;;;;;;124.25;112.10;;;;;;;8.35;100.00;101220.34;5073011;28;20049;-83
2023/03/23 00:50:28;;;;;;;117.97;106.28;;;;;;;8.35;100.00;101215.03;5073509;28;20076;-83
2023/03/23 00:52:56;;;;;;;112.97;101.68;;;;;;;8.40;100.00;101202.13;5074070;28;20395;-83
2023/03/23 00:55:25;;;;;;;120.47;108.07;;;;;;;8.40;100.00;101199.50;5073581;28;20122;-83
2023/03/23 00:57:52;;;;;;;126.72;112.45;;;;;;;8.42;100.00;101203.59;5071046;28;20048;-83
2023/03/23 01:00:19;;;;;;;138.15;122.90;;;;;;;8.42;100.00;101208.09;5074122;28;20084;-83
2023/03/23 01:02:46;;;;;;;153.40;136.80;;;;;;;8.34;100.00;101208.94;5072864;28;20075;-83
2023/03/23 01:05:14;;;;;;;128.98;115.22;;;;;;;8.37;100.00;101200.63;5071506;28;20057;-83
2023/03/23 01:07:43;;;;;;;136.38;115.95;;;;;;;8.06;100.00;101206.03;5072607;28;20449;-83
2023/03/23 01:10:15;;;;;;;132.57;113.05;;;;;;;8.09;100.00;101203.03;5073297;28;20076;-83
2023/03/23 01:12:45;;;;;;;117.07;104.32;;;;;;;8.19;100.00;101200.13;5070106;28;20148;-83
2023/03/23 01:15:15;;;;;;;140.32;126.32;;;;;;;8.23;100.00;101202.25;5074030;28;20072;-83
2023/03/23 01:17:42;;;;;;;133.15;118.47;;;;;;;8.23;100.00;101199.63;5070855;28;20111;-83
2023/03/23 01:20:10;;;;;;;144.45;128.90;;;;;;;8.36;100.00;101200.84;5066907;28;20041;-83
2023/03/23 01:22:37;;;;;;;148.70;132.57;;;;;;;8.31;100.00;101201.34;5072599;28;20045;-83
2023/03/23 01:25:05;;;;;;;140.25;125.75;;;;;;;8.31;100.00;101192.59;5072641;28;20500;-83
2023/03/23 01:27:32;;;;;;;116.40;104.68;;;;;;;8.31;100.00;101195.25;5069674;28;20105;-83
2023/03/23 01:30:00;;;;;;;106.18;95.53;;;;;;;8.32;100.00;101200.38;5072871;28;20423;-83
2023/03/23 01:32:27;;;;;;;128.80;116.50;;;;;;;8.35;100.00;101202.66;5072612;28;20498;-83
2023/03/23 01:34:53;;;;;;;125.90;114.20;;;;;;;8.17;100.00;101205.63;5072377;28;20049;-83
2023/03/23 01:37:25;;;;;;;118.43;107.25;;;;;;;8.22;100.00;101205.06;5072431;28;20053;-83
2023/03/23 01:39:53;;;;;;;106.93;96.70;;;;;;;8.13;100.00;101209.59;5071610;28;20104;-83
2023/03/23 01:42:21;;;;;;;107.32;97.00;;;;;;;7.98;100.00;101214.03;5071579;28;20052;-83
2023/03/23 01:45:29;;;;;;;107.72;97.20;;;;;;;8.16;100.00;101206.59;5071159;28;20052;-83
2023/03/23 01:48:04;;;;;;;105.10;94.72;;;;;;;7.91;100.00;101213.09;5032049;28;20411;-83
2023/03/23 01:50:37;;;;;;;108.72;98.07;;;;;;;7.96;100.00;101208.94;5069705;28;20045;-83
2023/03/23 01:53:08;;;;;;;122.95;111.50;;;;;;;7.86;100.00;101210.16;5072268;28;20122;-83
2023/03/23 01:55:38;;;;;;;124.70;113.35;;;;;;;7.95;100.00;101217.03;5072169;28;20056;-83
2023/03/23 01:58:06;;;;;;;110.22;99.20;;;;;;;7.90;100.00;101220.22;5072232;28;20073;-83
2023/03/23 02:00:34;;;;;;;116.07;105.18;;;;;;;7.98;100.00;101214.03;5069980;28;20049;-83
2023/03/23 02:03:02;;;;;;;123.10;111.35;;;;;;;8.12;100.00;101215.91;5071022;28;20045;-83
2023/03/23 02:05:33;;;;;;;124.78;113.03;;;;;;;8.26;100.00;101216.97;5072186;28;20080;-83
2023/03/23 02:08:03;;;;;;;136.83;121.93;;;;;;;8.34;100.00;101224.00;5068905;28;20075;-83
2023/03/23 02:10:31;;;;;;;142.65;128.02;;;;;;;8.25;100.00;101216.13;5071981;28;20059;-83
2023/03/23 02:12:58;;;;;;;136.48;123.05;;;;;;;8.32;100.00;101232.13;5072343;28;20060;-83
2023/03/23 02:15:28;;;;;;;127.35;114.57;;;;;;;8.26;100.00;101236.31;5069921;28;20048;-83
2023/03/23 02:18:07;;;;;;;117.95;105.80;;;;;;;8.35;100.00;101230.94;5071055;28;20076;-83
2023/03/23 02:20:57;;;;;;;131.98;119.07;;;;;;;8.32;100.00;101228.63;5071762;28;20079;-83
2023/03/23 02:23:50;;;;;;;142.80;127.95;;;;;;;8.36;100.00;101230.75;5072311;28;20053;-83
2023/03/23 02:26:34;;;;;;;137.77;122.90;;;;;;;8.33;100.00;101220.53;5068390;28;20067;-83
2023/03/23 02:29:31;;;;;;;135.13;121.35;;;;;;;8.36;100.00;101233.41;5065519;28;20053;-83
2023/03/23 02:32:11;;;;;;;123.80;110.13;;;;;;;8.20;100.00;101225.59;5057276;28;20049;-83
2023/03/23 02:34:42;;;;;;;130.13;115.35;;;;;;;8.23;100.00;101233.19;5071281;28;20067;-83
2023/03/23 02:37:13;;;;;;;128.75;110.53;;;;;;;8.23;100.00;101235.84;5070845;28;20049;-83
2023/03/23 02:39:46;;;;;;;141.25;121.10;;;;;;;8.06;100.00;101237.78;5072153;28;20049;-84
2023/03/23 02:42:16;;;;;;;135.10;110.97;;;;;;;7.87;100.00;101240.91;5071325;28;20109;-83
2023/03/23 02:44:46;;;;;;;131.18;115.25;;;;;;;7.92;100.00;101235.88;5067770;28;20052;-83
2023/03/23 02:47:18;;;;;;;126.80;106.95;;;;;;;8.02;100.00;101239.97;5065188;28;20048;-83
2023/03/23 02:49:50;;;;;;;142.45;127.10;;;;;;;7.96;100.00;101238.03;5070677;28;20045;-83
2023/03/23 02:52:20;;;;;;;155.02;139.20;;;;;;;7.66;100.00;101241.53;5071255;28;20057;-83
2023/03/23 02:54:49;;;;;;;144.93;129.82;;;;;;;7.44;100.00;101248.38;5070653;28;20040;-83
2023/03/23 02:57:16;;;;;;;121.93;109.00;;;;;;;7.33;100.00;101250.41;5069381;28;20037;-83
2023/03/23 02:59:43;;;;;;;116.90;101.13;;;;;;;7.06;100.00;101258.78;5071304;28;20056;-83
2023/03/23 03:02:15;;;;;;;130.68;116.82;;;;;;;7.28;100.00;101255.38;5064537;28;20032;-83
2023/03/23 03:04:45;;;;;;;134.40;120.63;;;;;;;7.46;100.00;101254.34;5070109;28;20056;-83
2023/03/23 03:07:38;;;;;;;122.82;109.40;;;;;;;7.57;100.00;101262.69;5068111;28;20114;-83
2023/03/23 03:10:12;;;;;;;136.93;121.53;;;;;;;7.60;100.00;101266.81;5067098;28;20476;-83
2023/03/23 03:12:48;;;;;;;148.13;132.48;;;;;;;7.66;100.00;101260.84;5066034;28;20049;-83
2023/03/23 03:15:24;;;;;;;131.63;112.32;;;;;;;7.68;100.00;101268.59;5070410;28;20049;-83
2023/03/23 03:17:59;;;;;;;133.50;110.60;;;;;;;7.65;100.00;101264.47;5070263;28;20048;-83
2023/03/23 03:20:27;;;;;;;137.55;107.03;;;;;;;7.80;100.00;101275.94;5068710;28;20056;-83
2023/03/23 03:22:57;;;;;;;130.15;101.47;;;;;;;7.71;100.00;101274.34;5069708;28;20112;-83
2023/03/23 03:25:27;;;;;;;122.43;98.60;;;;;;;7.84;100.00;101272.97;5069740;28;20060;-83
2023/03/23 03:27:56;;;;;;;132.50;118.25;;;;;;;7.66;100.00;101275.88;5069553;28;20060;-83
2023/03/23 03:30:27;;;;;;;141.90;112.57;;;;;;;7.72;100.00;101281.31;5070397;28;20083;-83
2023/03/23 03:32:54;;;;;;;139.50;109.10;;;;;;;7.78;100.00;101288.53;5067961;28;20555;-83
2023/03/23 03:35:22;;;;;;;143.50;107.28;;;;;;;7.94;100.00;101289.44;5068263;28;20126;-84
2023/03/23 03:37:50;;;;;;;146.70;116.13;;;;;;;7.85;100.00;101291.31;5067136;28;20095;-83
2023/03/23 03:40:21;;;;;;;151.45;112.80;;;;;;;7.93;100.00;101288.63;5069532;28;20079;-83
2023/03/23 03:42:48;;;;;;;135.73;95.75;;;;;;;7.96;100.00;101288.28;5067965;28;20068;-83
2023/03/23 03:45:18;;;;;;;137.13;100.55;;;;;;;8.00;100.00;101286.09;5070013;28;20079;-83
2023/03/23 03:47:45;;;;;;;153.85;104.75;;;;;;;7.96;100.00;101275.06;5069387;28;20049;-83
2023/03/23 03:50:12;;;;;;;154.05;108.82;;;;;;;7.94;100.00;101282.34;5070201;28;20599;-83
2023/03/23 03:52:40;;;;;;;157.27;116.25;;;;;;;7.93;100.00;101279.88;5069772;28;20079;-83
2023/03/23 03:55:08;;;;;;;147.10;120.75;;;;;;;8.08;100.00;101290.50;5068714;28;20049;-83
2023/03/23 03:57:36;;;;;;;154.70;114.28;;;;;;;8.08;100.00;101291.34;5068547;28;20056;-83
2023/03/23 04:00:13;;;;;;;142.57;110.90;;;;;;;8.03;100.00;101283.09;5069497;28;20049;-83
2023/03/23 04:02:41;;;;;;;161.10;112.70;;;;;;;8.19;100.00;101293.56;5068782;28;20045;-83
2023/03/23 04:05:09;;;;;;;152.88;111.47;;;;;;;8.24;100.00;101287.75;5032739;28;20064;-83
2023/03/23 04:07:37;;;;;;;157.55;103.22;;;;;;;8.20;100.00;101286.44;5052124;28;20099;-83
2023/03/23 04:10:06;;;;;;;162.50;120.68;;;;;;;8.00;100.00;101288.75;5042158;28;20134;-84
2023/03/23 04:12:34;;;;;;;154.35;97.97;;;;;;;8.19;100.00;101298.03;5044854;28;20491;-84
2023/03/23 04:15:02;;;;;;;151.07;98.10;;;;;;;7.91;100.00;101295.91;5050452;28;20056;-83
2023/03/23 04:17:28;;;;;;;154.93;100.70;;;;;;;8.19;100.00;101305.97;5034011;28;20049;-83
2023/03/23 04:19:57;;;;;;;150.90;99.35;;;;;;;8.02;100.00;101302.63;5045762;28;20080;-83
2023/03/23 04:22:29;;;;;;;153.98;97.60;;;;;;;8.06;100.00;101300.47;5042492;28;20132;-83
2023/03/23 04:25:00;;;;;;;152.70;98.65;;;;;;;8.07;100.00;101294.97;5044194;28;20053;-83
2023/03/23 04:27:28;;;;;;;144.35;99.53;;;;;;;8.11;100.00;101296.28;5043045;28;20052;-83
2023/03/23 04:29:57;;;;;;;150.27;103.63;;;;;;;8.13;100.00;101294.28;5045705;28;20124;-83
2023/03/23 04:32:28;;;;;;;136.02;93.57;;;;;;;7.92;100.00;101296.72;5048652;28;20109;-83
2023/03/23 04:34:56;;;;;;;147.85;101.43;;;;;;;7.80;100.00;101294.47;5051437;28;20049;-83
2023/03/23 04:37:25;;;;;;;139.18;96.90;;;;;;;7.79;100.00;101300.75;5049610;28;20053;-83
2023/03/23 04:40:00;;;;;;;142.07;96.10;;;;;;;7.78;100.00;101306.25;5043470;28;20045;-83
2023/03/23 04:42:30;;;;;;;130.35;93.72;;;;;;;8.01;100.00;101303.63;5041900;28;20101;-83
2023/03/23 04:44:57;;;;;;;136.95;95.80;;;;;;;7.74;100.00;101304.91;5042783;28;20076;-83
2023/03/23 04:47:29;;;;;;;138.52;97.07;;;;;;;7.70;100.00;101306.28;5046169;28;20076;-83
2023/03/23 04:49:56;;;;;;;140.00;97.20;;;;;;;7.87;100.00;101304.38;5042911;28;20105;-83
2023/03/23 04:52:24;;;;;;;133.52;95.47;;;;;;;7.80;100.00;101309.50;5044793;28;20056;-83
2023/03/23 04:54:51;;;;;;;136.93;98.93;;;;;;;7.71;100.00;101308.72;5040568;28;20136;-83
2023/03/23 04:57:18;;;;;;;138.25;98.28;;;;;;;7.83;100.00;101297.78;5044706;28;20468;-83
2023/03/23 04:59:45;;;;;;;133.82;100.07;;;;;;;8.04;100.00;101306.72;5043137;28;20057;-83
2023/03/23 05:02:12;;;;;;;137.40;99.53;;;;;;;8.04;100.00;101309.38;5050334;28;20050;-83
2023/03/23 05:04:41;;;;;;;147.55;107.05;;;;;;;8.18;100.00;101309.63;5053476;28;20422;-83
2023/03/23 05:07:08;;;;;;;132.18;101.32;;;;;;;8.12;100.00;101303.22;5042624;28;20080;-83
2023/03/23 05:09:35;;;;;;;137.90;101.15;;;;;;;8.04;100.00;101303.25;5046856;28;20049;-83
2023/03/23 05:12:06;;;;;;;142.95;98.38;;;;;;;8.10;100.00;101315.78;5042305;28;20060;-83
2023/03/23 05:14:33;;;;;;;140.57;99.45;;;;;;;8.02;100.00;101310.56;5042718;28;20057;-83
2023/03/23 05:17:00;;;;;;;135.98;105.43;;;;;;;8.11;100.00;101312.16;5045429;28;20108;-83
2023/03/23 05:19:27;;;;;;;126.28;101.45;;;;;;;8.15;100.00;101318.75;5044858;28;20050;-83
2023/03/23 05:22:02;;;;;;;142.65;100.50;;;;;;;8.20;100.00;101307.63;5041792;28;20593;-83
2023/03/23 05:24:31;;;;;;;126.32;92.22;;;;;;;8.01;100.00;101311.56;5035220;28;20046;-83
2023/03/23 05:26:58;;;;;;;132.15;95.45;;;;;;;8.18;100.00;101314.94;5043913;28;20069;-83
2023/03/23 05:29:25;;;;;;;134.88;98.45;;;;;;;8.18;100.00;101314.94;5041371;28;20057;-83
2023/03/23 05:31:55;;;;;;;135.88;101.55;;;;;;;8.30;100.00;101310.06;5044695;28;20053;-84
2023/03/23 05:34:22;;;;;;;132.23;95.22;;;;;;;8.60;100.00;101329.56;5041276;28;20049;-84
2023/03/23 05:36:49;;;;;;;140.20;95.70;;;;;;;8.29;100.00;101321.63;5018144;28;20100;-79
2023/03/23 05:39:17;;;;;;;133.00;96.28;;;;;;;8.14;100.00;101326.84;5022382;28;20085;-79
2023/03/23 05:41:44;;;;;;;137.30;97.47;;;;;;;8.17;100.00;101332.63;5027775;28;20493;-79
2023/03/23 05:44:13;;;;;;;145.02;95.85;;;;;;;8.18;100.00;101330.81;5025629;28;20045;-79
2023/03/23 05:46:39;;;;;;;146.68;97.32;;;;;;;8.19;100.00;101325.31;5032107;28;20049;-79
2023/03/23 05:49:07;;;;;;;153.40;101.05;;;;;;;8.40;100.00;101331.84;5032565;28;20468;-79
2023/03/23 05:51:34;;;;;;;152.82;103.63;;;;;;;8.43;100.00;101345.53;5027669;28;20068;-79
2023/03/23 05:54:01;;;;;;;160.80;101.57;;;;;;;8.60;100.00;101340.16;5032398;28;20061;-78
2023/03/23 05:56:30;;;;;;;159.80;104.50;;;;;;;8.46;100.00;101337.25;5041298;28;20077;-78
2023/03/23 05:58:57;;;;;;;160.00;99.47;;;;;;;8.34;100.00;101343.91;5042400;28;20080;-78
2023/03/23 06:01:24;;;;;;;154.85;96.03;;;;;;;8.33;100.00;101337.00;5042702;28;20045;-78
2023/03/23 06:03:53;;;;;;;157.93;105.68;;;;;;;8.42;100.00;101343.91;5047579;28;20072;-78
2023/03/23 06:06:20;;;;;;;146.48;99.60;;;;;;;8.52;100.00;101346.31;5042233;28;20061;-78
2023/03/23 06:08:48;;;;;;;160.95;99.75;;;;;;;8.64;100.00;101338.78;5037474;28;20042;-78
2023/03/23 06:11:15;;;;;;;151.88;104.63;;;;;;;8.76;100.00;101341.84;5038833;28;20073;-78
2023/03/23 06:13:44;;;;;;;156.13;102.68;;;;;;;8.92;100.00;101349.63;5041338;28;21660;-78
2023/03/23 06:16:11;;;;;;;150.70;102.00;;;;;;;8.96;100.00;101345.63;5045618;28;20049;-78
2023/03/23 06:18:40;;;;;;;146.00;101.00;;;;;;;8.95;100.00;101341.31;5041610;28;20046;-78
2023/03/23 06:21:07;;;;;;;149.85;99.85;;;;;;;9.08;100.00;101346.84;5044403;28;20061;-78
2023/03/23 06:23:34;;;;;;;151.57;106.35;;;;;;;9.23;100.00;101344.22;5028161;28;20045;-78
2023/03/23 06:26:03;;;;;;;143.20;106.32;;;;;;;9.05;100.00;101344.56;5028208;28;20131;-78
2023/03/23 06:28:30;;;;;;;143.63;103.57;;;;;;;9.35;100.00;101352.53;5027634;28;20141;-78
2023/03/23 06:31:01;;;;;;;142.73;103.82;;;;;;;9.42;100.00;101352.63;5027759;28;20064;-78
2023/03/23 06:33:28;;;;;;;145.93;108.60;;;;;;;9.48;100.00;101357.19;5027410;28;20050;-78
2023/03/23 06:35:55;;;;;;;140.18;109.95;;;;;;;9.33;100.00;101360.66;5041325;28;20076;-78
2023/03/23 06:38:22;;;;;;;145.10;108.25;;;;;;;9.46;100.00;101365.31;5036237;28;20474;-78
2023/03/23 06:40:50;;;;;;;146.05;111.20;;;;;;;9.55;100.00;101361.56;5035238;28;20049;-78
2023/03/23 06:43:17;;;;;;;132.90;104.25;;;;;;;9.75;100.00;101366.34;5038829;28;20136;-78
2023/03/23 06:45:44;;;;;;;130.75;108.00;;;;;;;10.00;100.00;101365.00;5039161;28;20057;-78
2023/03/23 06:48:13;;;;;;;122.25;104.00;;;;;;;10.25;100.00;101367.31;5039402;28;20472;-78
2023/03/23 06:50:42;;;;;;;129.98;107.32;;;;;;;9.84;100.00;101362.56;5037919;28;20049;-78
2023/03/23 06:53:09;;;;;;;128.43;100.38;;;;;;;10.27;100.00;101373.31;5037717;28;20095;-78
2023/03/23 06:55:36;;;;;;;132.48;107.30;;;;;;;9.83;100.00;101369.72;5037093;28;20506;-78
2023/03/23 06:58:03;;;;;;;136.30;113.50;;;;;;;10.30;100.00;101370.28;5037671;28;20076;-78
2023/03/23 07:00:30;;;;;;;126.43;107.10;;;;;;;9.75;100.00;101369.00;5033395;28;20077;-78
2023/03/23 07:02:58;;;;;;;120.28;98.75;;;;;;;9.79;100.00;101379.03;5036540;28;20072;-78
2023/03/23 07:05:26;;;;;;;115.28;91.53;;;;;;;9.84;100.00;101379.31;5046800;28;20566;-78
2023/03/23 07:07:53;;;;;;;111.35;87.72;;;;;;;9.93;100.00;101379.22;5038184;28;20078;-78
2023/03/23 07:10:20;;;;;;;117.78;95.45;;;;;;;9.82;100.00;101383.16;5038992;28;20053;-78
2023/03/23 07:12:47;;;;;;;121.15;94.93;;;;;;;9.73;100.00;101374.47;5040688;28;20080;-78
2023/03/23 07:15:15;;;;;;;124.75;96.45;;;;;;;9.53;100.00;101387.47;5042057;28;20054;-78
2023/03/23 07:17:42;;;;;;;116.40;96.20;;;;;;;9.38;100.00;101392.75;5041492;28;20136;-78
2023/03/23 07:20:10;;;;;;;117.10;100.20;;;;;;;9.20;100.00;101386.13;5037954;28;20050;-78
2023/03/23 07:22:38;;;;;;;126.55;97.50;;;;;;;9.73;100.00;101384.25;5041533;28;20088;-78
2023/03/23 07:25:05;;;;;;;134.23;100.85;;;;;;;9.82;100.00;101391.09;5047019;28;20054;-78
2023/03/23 07:27:32;;;;;;;109.95;96.20;;;;;;;9.83;100.00;101398.91;5040391;28;20045;-78
2023/03/23 07:29:59;;;;;;;125.38;100.88;;;;;;;9.98;100.00;101398.84;5044122;28;20049;-78
2023/03/23 07:32:26;;;;;;;105.85;86.32;;;;;;;9.91;100.00;101394.50;5042346;28;20049;-78
2023/03/23 07:34:52;;;;;;;127.05;103.22;;;;;;;10.10;100.00;101404.50;5044455;28;20053;-78
2023/03/23 07:37:19;;;;;;;125.50;107.13;;;;;;;10.24;100.00;101400.19;5045813;28;20041;-78
2023/03/23 07:39:47;;;;;;;115.10;103.13;;;;;;;10.20;100.00;101404.25;5043571;28;20076;-78
2023/03/23 07:42:14;;;;;;;115.03;102.55;;;;;;;10.64;100.00;101398.81;5044741;28;20454;-78
2023/03/23 07:44:41;;;;;;;107.72;96.03;;;;;;;10.13;100.00;101403.31;5040397;28;20049;-81
2023/03/23 07:47:08;;;;;;;99.03;88.40;;;;;;;9.94;100.00;101404.72;5031529;28;20624;-79
2023/03/23 07:49:35;;;;;;;104.28;91.57;;;;;;;10.26;100.00;101406.16;5028244;28;20100;-79
2023/03/23 07:52:02;;;;;;;97.20;86.55;;;;;;;10.32;100.00;101410.75;5026757;28;20041;-79
2023/03/23 07:54:29;;;;;;;102.43;90.30;;;;;;;10.17;100.00;101410.75;5029439;28;20092;-79
2023/03/23 07:56:57;;;;;;;96.65;86.15;;;;;;;9.68;100.00;101415.81;5024218;28;20458;-79
2023/03/23 07:59:24;;;;;;;104.80;89.57;;;;;;;10.02;100.00;101420.56;5029607;28;20481;-79
2023/03/23 08:01:51;;;;;;;106.57;92.35;;;;;;;10.52;100.00;101410.94;5030449;28;20124;-79
2023/03/23 08:04:17;;;;;;;111.88;98.45;;;;;;;10.15;100.00;101410.09;5037679;28;20083;-79
2023/03/23 08:06:45;;;;;;;112.28;94.25;;;;;;;10.04;100.00;101410.56;5031407;28;20521;-79
2023/03/23 08:09:13;;;;;;;115.85;103.35;;;;;;;9.60;100.00;101420.19;5031684;28;20084;-79
2023/03/23 08:11:39;;;;;;;106.50;91.57;;;;;;;9.83;100.00;101422.78;5029743;28;20049;-79
2023/03/23 08:14:07;;;;;;;97.80;86.55;;;;;;;10.25;100.00;101423.88;5031654;28;20092;-79
2023/03/23 08:16:35;;;;;;;99.15;85.95;;;;;;;9.35;100.00;101427.59;5028492;28;20104;-79
2023/03/23 08:19:02;;;;;;;98.63;87.85;;;;;;;9.70;100.00;101430.53;5029128;28;20060;-79
2023/03/23 08:21:29;;;;;;;102.32;91.38;;;;;;;9.84;100.00;101427.06;5028691;28;20049;-79
2023/03/23 08:23:56;;;;;;;97.00;87.00;;;;;;;9.82;100.00;101433.56;5027085;28;20057;-79
2023/03/23 08:26:23;;;;;;;93.45;83.30;;;;;;;10.03;100.00;101433.63;5031146;28;20049;-79
2023/03/23 08:28:49;;;;;;;100.22;89.32;;;;;;;9.73;100.00;101427.50;5022690;28;20590;-79
2023/03/23 08:31:18;;;;;;;99.90;89.47;;;;;;;9.63;100.00;101435.75;5019960;28;20049;-79
2023/03/23 08:33:45;;;;;;;94.13;83.05;;;;;;;10.17;100.00;101431.16;5035384;28;20132;-79
2023/03/23 08:36:11;;;;;;;103.82;89.57;;;;;;;9.60;100.00;101427.34;5033014;28;20041;-79
2023/03/23 08:38:38;;;;;;;99.68;89.15;;;;;;;10.19;100.00;101427.28;5033865;28;20056;-79
2023/03/23 08:41:07;;;;;;;95.40;85.53;;;;;;;9.60;100.00;101430.81;5035162;28;20053;-79
2023/03/23 08:43:34;;;;;;;99.03;88.35;;;;;;;10.14;100.00;101423.56;5030705;28;20053;-79
2023/03/23 08:46:01;;;;;;;107.88;97.25;;;;;;;10.12;100.00;101426.41;5033017;28;20049;-79
2023/03/23 08:48:29;;;;;;;101.32;90.93;;;;;;;10.60;100.00;101425.94;5019403;28;20050;-79
2023/03/23 08:50:56;;;;;;;101.53;91.05;;;;;;;10.30;100.00;101423.38;5027525;28;20474;-79
2023/03/23 08:53:22;;;;;;;94.38;84.25;;;;;;;10.43;100.00;101426.16;5031484;28;20054;-79
2023/03/23 08:55:50;;;;;;;106.50;95.40;;;;;;;10.42;100.00;101421.88;5026400;28;20045;-79
2023/03/23 08:58:17;;;;;;;97.28;87.35;;;;;;;10.55;100.00;101429.16;5030874;28;20453;-79
2023/03/23 09:00:45;;;;;;;92.30;82.50;;;;;;;9.98;100.00;101436.00;5017398;28;20042;-79
2023/03/23 09:03:13;;;;;;;94.18;84.03;;;;;;;10.07;100.00;101429.59;5027335;28;20041;-79
2023/03/23 09:05:45;;;;;;;95.20;85.10;;;;;;;10.48;100.00;101429.09;5031477;28;20049;-79
2023/03/23 09:08:13;;;;;;;96.65;86.75;;;;;;;10.39;100.00;101424.91;5030479;28;20493;-79
2023/03/23 09:10:40;;;;;;;92.25;82.50;;;;;;;10.41;100.00;101424.72;5030535;28;20178;-79
2023/03/23 09:13:07;;;;;;;91.05;81.35;;;;;;;10.60;100.00;101425.94;5024150;28;20041;-79
2023/03/23 09:15:34;;;;;;;86.40;77.65;;;;;;;10.76;100.00;101420.38;5032107;28;20395;-79
2023/03/23 09:18:01;;;;;;;80.85;72.55;;;;;;;10.63;100.00;101407.78;5030582;28;20084;-79
2023/03/23 09:20:29;;;;;;;81.45;69.55;;;;;;;10.62;100.00;101422.09;5027242;28;20049;-79
2023/03/23 09:22:58;;;;;;;79.82;71.13;;;;;;;11.03;100.00;101417.97;5030863;28;20042;-79
2023/03/23 09:25:27;;;;;;;83.35;74.50;;;;;;;11.81;100.00;101426.69;5029751;28;20049;-79
2023/03/23 09:27:56;;;;;;;86.20;77.45;;;;;;;11.76;100.00;101418.47;5025440;28;20054;-79
2023/03/23 09:30:26;;;;;;;75.75;67.65;;;;;;;11.49;100.00;101415.66;5035735;28;20077;-79
2023/03/23 09:32:53;;;;;;;76.80;68.65;;;;;;;11.80;100.00;101420.56;5027533;28;20054;-79
2023/03/23 09:35:21;;;;;;;77.18;67.18;;;;;;;11.64;100.00;101413.69;5026038;28;20569;-79
2023/03/23 09:37:49;;;;;;;81.70;72.75;;;;;;;11.52;100.00;101404.63;5027051;28;20403;-79
2023/03/23 09:40:21;;;;;;;65.22;56.97;;;;;;;11.33;100.00;101414.13;5028070;28;20042;-79
2023/03/23 09:43:08;;;;;;;70.13;57.47;;;;;;;11.33;100.00;101411.44;5026205;28;20041;-79
2023/03/23 09:45:44;;;;;;;69.03;59.17;;;;;;;11.41;100.00;101413.16;5016058;28;20046;-79
2023/03/23 09:48:37;;;;;;;71.30;58.75;;;;;;;12.07;100.00;101408.22;5018901;28;20053;-79
2023/03/23 09:51:18;;;;;;;73.80;61.05;;;;;;;13.63;100.00;101402.63;5032665;28;20073;-79
2023/03/23 09:53:49;;;;;;;92.18;83.47;;;;;;;14.73;100.00;101397.16;5032145;28;20103;-79
2023/03/23 09:56:18;;;;;;;61.07;52.90;;;;;;;14.20;100.00;101392.13;5031485;28;20046;-79
2023/03/23 09:58:52;;;;;;;55.47;49.47;;;;;;;14.96;100.00;101390.44;5033014;28;20300;-78
2023/03/23 10:01:24;;;;;;;57.60;51.70;;;;;;;14.98;100.00;101386.50;5033474;28;20533;-79
2023/03/23 10:04:01;;;;;;;59.08;52.67;;;;;;;15.17;100.00;101389.22;5029951;28;20103;-79
2023/03/23 10:06:28;;;;;;;59.45;53.08;;;;;;;15.58;100.00;101376.03;5029988;28;20144;-79
2023/03/23 10:08:57;;;;;;;59.72;53.30;;;;;;;15.89;100.00;101379.63;5025642;28;20049;-79
2023/03/23 10:11:34;;;;;;;51.22;46.30;;;;;;;13.80;100.00;101375.44;5032608;28;20119;-79
2023/03/23 10:14:15;;;;;;;49.35;44.40;;;;;;;15.69;100.00;101379.84;5033674;28;20053;-79
2023/03/23 10:16:53;;;;;;;52.55;47.28;;;;;;;13.86;100.00;101369.28;5028995;28;20056;-79
2023/03/23 10:19:28;;;;;;;51.75;46.95;;;;;;;15.39;100.00;101369.03;5030304;28;20053;-79
2023/03/23 10:22:01;;;;;;;46.75;42.00;;;;;;;16.15;100.00;101373.09;5026915;28;20108;-79
2023/03/23 10:24:34;;;;;;;43.85;39.50;;;;;;;16.92;100.00;101369.72;5026789;28;20100;-78
2023/03/23 10:27:13;;;;;;;40.90;36.88;;;;;;;16.91;100.00;101365.38;5025500;28;20107;-79
2023/03/23 10:29:44;;;;;;;43.50;39.20;;;;;;;15.04;100.00;101372.25;5026620;28;20061;-78
2023/03/23 10:32:14;;;;;;;44.03;39.88;;;;;;;15.89;100.00;101371.59;5033660;28;20069;-78
2023/03/23 10:34:46;;;;;;;41.40;37.47;;;;;;;16.43;100.00;101358.25;5026797;28;20538;-79
2023/03/23 10:37:17;;;;;;;43.90;39.65;;;;;;;15.05;100.00;101365.03;5027678;28;20096;-79
2023/03/23 10:39:49;;;;;;;46.17;41.13;;;;;;;13.94;100.00;101359.16;5027027;28;20115;-79
2023/03/23 10:42:27;;;;;;;41.92;37.65;;;;;;;14.16;100.00;101353.50;5024399;28;20049;-79
2023/03/23 10:44:54;;;;;;;49.33;43.95;;;;;;;14.70;100.00;101351.34;5025124;28;20049;-79
2023/03/23 10:47:22;;;;;;;48.90;43.70;;;;;;;13.83;100.00;101348.31;5029186;28;20130;-78
2023/03/23 10:49:52;;;;;;;45.20;40.35;;;;;;;15.23;100.00;101341.00;5030055;28;20057;-79
2023/03/23 10:52:29;;;;;;;46.22;41.45;;;;;;;16.23;100.00;101343.28;5026268;28;20429;-79
2023/03/23 10:55:03;;;;;;;42.25;38.10;;;;;;;16.55;100.00;101347.56;5027326;28;20111;-79
2023/03/23 10:57:34;;;;;;;40.38;36.47;;;;;;;14.86;100.00;101340.94;5028344;28;20497;-79
2023/03/23 11:00:06;;;;;;;42.55;38.60;;;;;;;14.60;100.00;101339.28;5020678;28;20167;-79
2023/03/23 11:02:36;;;;;;;51.55;46.88;;;;;;;14.89;100.00;101345.84;5021092;28;20567;-79
2023/03/23 11:05:07;;;;;;;48.15;43.38;;;;;;;16.15;100.00;101340.94;5010041;28;20482;-79
2023/03/23 11:07:36;;;;;;;41.72;37.70;;;;;;;15.41;100.00;101340.19;5036083;28;20465;-79